sensor_id;sensor_type;location;lat;lon;timestamp;P1;durP1;ratioP1;P2;durP2;ratioP2
77018;SDS011;66044;53.142;17.962;2023-05-07T00:01:12;16.00;;;8.00;;
77018;SDS011;66044;53.142;17.962;2023-05-07T00:03:38;16.30;;;9.00;;
77018;SDS011;66044;53.142;17.962;2023-05-07T00:06:05;15.60;;;9.10;;
77018;SDS011;66044;53.142;17.962;2023-05-07T00:08:31;15.00;;;8.10;;
77018;SDS011;66044;53.142;17.962;2023-05-07T00:10:58;14.00;;;8.10;;
77018;SDS011;66044;53.142;17.962;2023-05-07T00:13:24;17.50;;;10.10;;
77018;SDS011;66044;53.142;17.962;2023-05-07T00:15:50;19.40;;;11.30;;
77018;SDS011;66044;53.142;17.962;2023-05-07T00:18:17;16.90;;;9.70;;
77018;SDS011;66044;53.142;17.962;2023-05-07T00:20:47;17.30;;;9.50;;
77018;SDS011;66044;53.142;17.962;2023-05-07T00:23:13;15.20;;;8.70;;
77018;SDS011;66044;53.142;17.962;2023-05-07T00:25:39;14.50;;;7.70;;
77018;SDS011;66044;53.142;17.962;2023-05-07T00:28:06;14.70;;;8.30;;
77018;SDS011;66044;53.142;17.962;2023-05-07T00:30:32;15.90;;;9.10;;
77018;SDS011;66044;53.142;17.962;2023-05-07T00:32:59;14.10;;;8.20;;
77018;SDS011;66044;53.142;17.962;2023-05-07T00:35:25;14.20;;;8.10;;
77018;SDS011;66044;53.142;17.962;2023-05-07T00:37:51;12.90;;;7.60;;
77018;SDS011;66044;53.142;17.962;2023-05-07T00:40:18;14.80;;;8.90;;
77018;SDS011;66044;53.142;17.962;2023-05-07T00:42:44;14.00;;;8.00;;
77018;SDS011;66044;53.142;17.962;2023-05-07T00:45:13;14.70;;;7.90;;
77018;SDS011;66044;53.142;17.962;2023-05-07T00:47:40;12.10;;;7.80;;
77018;SDS011;66044;53.142;17.962;2023-05-07T00:50:07;13.70;;;7.70;;
77018;SDS011;66044;53.142;17.962;2023-05-07T00:52:36;12.80;;;7.50;;
77018;SDS011;66044;53.142;17.962;2023-05-07T00:55:04;14.80;;;8.30;;
77018;SDS011;66044;53.142;17.962;2023-05-07T00:57:33;13.50;;;8.20;;
77018;SDS011;66044;53.142;17.962;2023-05-07T01:00:04;13.60;;;6.90;;
77018;SDS011;66044;53.142;17.962;2023-05-07T01:02:31;13.60;;;7.40;;
77018;SDS011;66044;53.142;17.962;2023-05-07T01:04:57;12.70;;;7.70;;
77018;SDS011;66044;53.142;17.962;2023-05-07T01:07:24;15.20;;;7.70;;
77018;SDS011;66044;53.142;17.962;2023-05-07T01:09:50;13.40;;;8.30;;
77018;SDS011;66044;53.142;17.962;2023-05-07T01:12:17;14.50;;;8.30;;
77018;SDS011;66044;53.142;17.962;2023-05-07T01:14:44;13.80;;;7.70;;
77018;SDS011;66044;53.142;17.962;2023-05-07T01:17:10;13.70;;;7.70;;
77018;SDS011;66044;53.142;17.962;2023-05-07T01:19:37;13.90;;;8.40;;
77018;SDS011;66044;53.142;17.962;2023-05-07T01:22:06;14.80;;;8.70;;
77018;SDS011;66044;53.142;17.962;2023-05-07T01:24:35;16.20;;;9.10;;
77018;SDS011;66044;53.142;17.962;2023-05-07T01:27:03;20.20;;;10.40;;
77018;SDS011;66044;53.142;17.962;2023-05-07T01:29:29;21.10;;;10.60;;
77018;SDS011;66044;53.142;17.962;2023-05-07T01:31:59;17.60;;;10.20;;
77018;SDS011;66044;53.142;17.962;2023-05-07T01:34:28;17.50;;;9.60;;
77018;SDS011;66044;53.142;17.962;2023-05-07T01:36:58;15.10;;;8.50;;
77018;SDS011;66044;53.142;17.962;2023-05-07T01:39:25;15.30;;;9.10;;
77018;SDS011;66044;53.142;17.962;2023-05-07T01:41:54;16.00;;;8.00;;
77018;SDS011;66044;53.142;17.962;2023-05-07T01:44:22;15.60;;;8.20;;
77018;SDS011;66044;53.142;17.962;2023-05-07T01:46:49;13.40;;;7.40;;
77018;SDS011;66044;53.142;17.962;2023-05-07T01:49:16;14.30;;;7.60;;
77018;SDS011;66044;53.142;17.962;2023-05-07T01:51:42;16.60;;;8.40;;
77018;SDS011;66044;53.142;17.962;2023-05-07T01:54:09;17.50;;;8.90;;
77018;SDS011;66044;53.142;17.962;2023-05-07T01:56:36;17.10;;;9.40;;
77018;SDS011;66044;53.142;17.962;2023-05-07T01:59:02;20.80;;;10.10;;
77018;SDS011;66044;53.142;17.962;2023-05-07T02:01:29;18.60;;;9.20;;
77018;SDS011;66044;53.142;17.962;2023-05-07T02:03:55;17.90;;;8.80;;
77018;SDS011;66044;53.142;17.962;2023-05-07T02:06:22;17.50;;;9.00;;
77018;SDS011;66044;53.142;17.962;2023-05-07T02:08:48;14.90;;;8.60;;
77018;SDS011;66044;53.142;17.962;2023-05-07T02:11:15;13.90;;;7.70;;
77018;SDS011;66044;53.142;17.962;2023-05-07T02:13:42;14.10;;;8.00;;
77018;SDS011;66044;53.142;17.962;2023-05-07T02:16:08;14.00;;;8.20;;
77018;SDS011;66044;53.142;17.962;2023-05-07T02:18:35;16.00;;;8.20;;
77018;SDS011;66044;53.142;17.962;2023-05-07T02:21:02;15.50;;;8.00;;
77018;SDS011;66044;53.142;17.962;2023-05-07T02:23:28;16.10;;;8.90;;
77018;SDS011;66044;53.142;17.962;2023-05-07T02:25:54;16.60;;;8.90;;
77018;SDS011;66044;53.142;17.962;2023-05-07T02:28:21;15.00;;;7.80;;
77018;SDS011;66044;53.142;17.962;2023-05-07T02:30:47;15.80;;;8.40;;
77018;SDS011;66044;53.142;17.962;2023-05-07T02:33:14;13.60;;;7.90;;
77018;SDS011;66044;53.142;17.962;2023-05-07T02:35:40;14.20;;;7.80;;
77018;SDS011;66044;53.142;17.962;2023-05-07T02:38:06;14.30;;;6.90;;
77018;SDS011;66044;53.142;17.962;2023-05-07T02:40:33;14.40;;;8.40;;
77018;SDS011;66044;53.142;17.962;2023-05-07T02:42:59;14.50;;;7.60;;
77018;SDS011;66044;53.142;17.962;2023-05-07T02:45:26;14.20;;;7.90;;
77018;SDS011;66044;53.142;17.962;2023-05-07T02:47:52;17.20;;;8.50;;
77018;SDS011;66044;53.142;17.962;2023-05-07T02:50:19;13.30;;;7.30;;
77018;SDS011;66044;53.142;17.962;2023-05-07T02:52:45;13.20;;;6.80;;
77018;SDS011;66044;53.142;17.962;2023-05-07T02:55:12;11.00;;;6.30;;
77018;SDS011;66044;53.142;17.962;2023-05-07T02:57:39;13.80;;;7.20;;
77018;SDS011;66044;53.142;17.962;2023-05-07T03:00:15;13.80;;;7.20;;
77018;SDS011;66044;53.142;17.962;2023-05-07T03:02:46;13.10;;;7.10;;
77018;SDS011;66044;53.142;17.962;2023-05-07T03:05:13;14.10;;;7.30;;
77018;SDS011;66044;53.142;17.962;2023-05-07T03:07:40;13.70;;;7.00;;
77018;SDS011;66044;53.142;17.962;2023-05-07T03:10:10;15.40;;;8.00;;
77018;SDS011;66044;53.142;17.962;2023-05-07T03:12:36;14.20;;;7.60;;
77018;SDS011;66044;53.142;17.962;2023-05-07T03:15:03;15.80;;;10.10;;
77018;SDS011;66044;53.142;17.962;2023-05-07T03:17:30;17.30;;;10.90;;
77018;SDS011;66044;53.142;17.962;2023-05-07T03:19:56;18.00;;;11.10;;
77018;SDS011;66044;53.142;17.962;2023-05-07T03:22:23;14.60;;;7.90;;
77018;SDS011;66044;53.142;17.962;2023-05-07T03:24:49;14.50;;;8.00;;
77018;SDS011;66044;53.142;17.962;2023-05-07T03:27:16;17.80;;;10.80;;
77018;SDS011;66044;53.142;17.962;2023-05-07T03:29:42;18.20;;;10.80;;
77018;SDS011;66044;53.142;17.962;2023-05-07T03:32:08;15.60;;;9.60;;
77018;SDS011;66044;53.142;17.962;2023-05-07T03:34:35;17.10;;;10.10;;
77018;SDS011;66044;53.142;17.962;2023-05-07T03:37:01;16.80;;;10.20;;
77018;SDS011;66044;53.142;17.962;2023-05-07T03:39:28;15.80;;;9.70;;
77018;SDS011;66044;53.142;17.962;2023-05-07T03:41:54;15.30;;;9.20;;
77018;SDS011;66044;53.142;17.962;2023-05-07T03:44:21;15.50;;;9.10;;
77018;SDS011;66044;53.142;17.962;2023-05-07T03:46:47;18.20;;;12.50;;
77018;SDS011;66044;53.142;17.962;2023-05-07T03:49:14;25.70;;;18.40;;
77018;SDS011;66044;53.142;17.962;2023-05-07T03:51:40;26.00;;;17.10;;
77018;SDS011;66044;53.142;17.962;2023-05-07T03:54:07;23.70;;;16.60;;
77018;SDS011;66044;53.142;17.962;2023-05-07T03:56:33;29.90;;;17.10;;
77018;SDS011;66044;53.142;17.962;2023-05-07T03:59:00;28.40;;;17.90;;
77018;SDS011;66044;53.142;17.962;2023-05-07T04:01:27;31.80;;;19.90;;
77018;SDS011;66044;53.142;17.962;2023-05-07T04:03:54;30.10;;;20.10;;
77018;SDS011;66044;53.142;17.962;2023-05-07T04:06:21;26.80;;;17.60;;
77018;SDS011;66044;53.142;17.962;2023-05-07T04:08:48;29.00;;;19.00;;
77018;SDS011;66044;53.142;17.962;2023-05-07T04:11:14;26.20;;;17.20;;
77018;SDS011;66044;53.142;17.962;2023-05-07T04:13:41;27.50;;;18.50;;
77018;SDS011;66044;53.142;17.962;2023-05-07T04:16:07;27.10;;;17.60;;
77018;SDS011;66044;53.142;17.962;2023-05-07T04:18:33;28.60;;;17.70;;
77018;SDS011;66044;53.142;17.962;2023-05-07T04:21:00;19.80;;;13.20;;
77018;SDS011;66044;53.142;17.962;2023-05-07T04:23:26;21.10;;;13.30;;
77018;SDS011;66044;53.142;17.962;2023-05-07T04:25:53;20.20;;;12.50;;
77018;SDS011;66044;53.142;17.962;2023-05-07T04:28:20;19.90;;;12.20;;
77018;SDS011;66044;53.142;17.962;2023-05-07T04:30:46;21.80;;;13.90;;
77018;SDS011;66044;53.142;17.962;2023-05-07T04:33:13;25.00;;;14.70;;
77018;SDS011;66044;53.142;17.962;2023-05-07T04:35:40;24.50;;;15.60;;
77018;SDS011;66044;53.142;17.962;2023-05-07T04:38:07;21.30;;;13.80;;
77018;SDS011;66044;53.142;17.962;2023-05-07T04:40:35;20.70;;;12.40;;
77018;SDS011;66044;53.142;17.962;2023-05-07T04:43:02;19.40;;;12.50;;
77018;SDS011;66044;53.142;17.962;2023-05-07T04:45:28;19.20;;;12.80;;
77018;SDS011;66044;53.142;17.962;2023-05-07T04:47:54;19.60;;;12.50;;
77018;SDS011;66044;53.142;17.962;2023-05-07T04:50:21;16.80;;;11.90;;
77018;SDS011;66044;53.142;17.962;2023-05-07T04:52:49;20.00;;;12.60;;
77018;SDS011;66044;53.142;17.962;2023-05-07T04:55:16;21.40;;;13.50;;
77018;SDS011;66044;53.142;17.962;2023-05-07T04:57:42;21.70;;;16.50;;
77018;SDS011;66044;53.142;17.962;2023-05-07T05:00:09;26.10;;;18.60;;
77018;SDS011;66044;53.142;17.962;2023-05-07T05:02:36;28.00;;;21.60;;
77018;SDS011;66044;53.142;17.962;2023-05-07T05:05:03;24.60;;;18.20;;
77018;SDS011;66044;53.142;17.962;2023-05-07T05:07:29;22.00;;;14.40;;
77018;SDS011;66044;53.142;17.962;2023-05-07T05:09:56;20.80;;;11.30;;
77018;SDS011;66044;53.142;17.962;2023-05-07T05:12:23;15.40;;;8.90;;
77018;SDS011;66044;53.142;17.962;2023-05-07T05:14:50;18.60;;;11.50;;
77018;SDS011;66044;53.142;17.962;2023-05-07T05:17:16;16.20;;;10.00;;
77018;SDS011;66044;53.142;17.962;2023-05-07T05:19:44;14.70;;;9.10;;
77018;SDS011;66044;53.142;17.962;2023-05-07T05:22:10;13.60;;;8.90;;
77018;SDS011;66044;53.142;17.962;2023-05-07T05:24:36;12.50;;;8.10;;
77018;SDS011;66044;53.142;17.962;2023-05-07T05:27:03;13.40;;;8.00;;
77018;SDS011;66044;53.142;17.962;2023-05-07T05:29:30;18.20;;;9.40;;
77018;SDS011;66044;53.142;17.962;2023-05-07T05:31:57;13.80;;;8.10;;
77018;SDS011;66044;53.142;17.962;2023-05-07T05:34:24;14.00;;;8.70;;
77018;SDS011;66044;53.142;17.962;2023-05-07T05:36:50;13.90;;;7.80;;
77018;SDS011;66044;53.142;17.962;2023-05-07T05:39:17;11.40;;;7.50;;
77018;SDS011;66044;53.142;17.962;2023-05-07T05:41:43;10.40;;;7.20;;
77018;SDS011;66044;53.142;17.962;2023-05-07T05:44:09;9.90;;;6.30;;
77018;SDS011;66044;53.142;17.962;2023-05-07T05:46:36;11.10;;;6.30;;
77018;SDS011;66044;53.142;17.962;2023-05-07T05:49:02;11.10;;;6.50;;
77018;SDS011;66044;53.142;17.962;2023-05-07T05:51:29;12.20;;;6.50;;
77018;SDS011;66044;53.142;17.962;2023-05-07T05:53:55;8.70;;;5.40;;
77018;SDS011;66044;53.142;17.962;2023-05-07T05:56:21;8.70;;;4.80;;
77018;SDS011;66044;53.142;17.962;2023-05-07T05:58:48;9.00;;;5.30;;
77018;SDS011;66044;53.142;17.962;2023-05-07T06:01:14;8.40;;;5.20;;
77018;SDS011;66044;53.142;17.962;2023-05-07T06:03:41;8.00;;;4.70;;
77018;SDS011;66044;53.142;17.962;2023-05-07T06:06:07;9.00;;;5.00;;
77018;SDS011;66044;53.142;17.962;2023-05-07T06:08:34;9.40;;;4.80;;
77018;SDS011;66044;53.142;17.962;2023-05-07T06:11:01;9.60;;;4.60;;
77018;SDS011;66044;53.142;17.962;2023-05-07T06:13:28;8.30;;;4.50;;
77018;SDS011;66044;53.142;17.962;2023-05-07T06:15:54;9.20;;;5.10;;
77018;SDS011;66044;53.142;17.962;2023-05-07T06:18:21;8.10;;;4.80;;
77018;SDS011;66044;53.142;17.962;2023-05-07T06:20:47;8.10;;;4.30;;
77018;SDS011;66044;53.142;17.962;2023-05-07T06:23:14;7.70;;;3.90;;
77018;SDS011;66044;53.142;17.962;2023-05-07T06:25:40;8.40;;;4.10;;
77018;SDS011;66044;53.142;17.962;2023-05-07T06:28:06;8.20;;;4.30;;
77018;SDS011;66044;53.142;17.962;2023-05-07T06:30:35;7.30;;;4.30;;
77018;SDS011;66044;53.142;17.962;2023-05-07T06:33:02;8.30;;;3.80;;
77018;SDS011;66044;53.142;17.962;2023-05-07T06:35:28;7.70;;;3.40;;
77018;SDS011;66044;53.142;17.962;2023-05-07T06:37:54;6.70;;;3.40;;
77018;SDS011;66044;53.142;17.962;2023-05-07T06:40:21;7.70;;;3.80;;
77018;SDS011;66044;53.142;17.962;2023-05-07T06:42:47;6.90;;;3.40;;
77018;SDS011;66044;53.142;17.962;2023-05-07T06:45:14;7.70;;;3.60;;
77018;SDS011;66044;53.142;17.962;2023-05-07T06:47:40;6.90;;;3.40;;
77018;SDS011;66044;53.142;17.962;2023-05-07T06:50:07;7.80;;;3.60;;
77018;SDS011;66044;53.142;17.962;2023-05-07T06:52:34;7.60;;;3.40;;
77018;SDS011;66044;53.142;17.962;2023-05-07T06:55:00;6.70;;;3.30;;
77018;SDS011;66044;53.142;17.962;2023-05-07T06:57:26;6.70;;;3.20;;
77018;SDS011;66044;53.142;17.962;2023-05-07T06:59:53;6.60;;;3.20;;
77018;SDS011;66044;53.142;17.962;2023-05-07T07:02:19;9.10;;;3.40;;
77018;SDS011;66044;53.142;17.962;2023-05-07T07:04:46;7.60;;;3.50;;
77018;SDS011;66044;53.142;17.962;2023-05-07T07:07:12;6.40;;;2.80;;
77018;SDS011;66044;53.142;17.962;2023-05-07T07:09:38;7.80;;;2.80;;
77018;SDS011;66044;53.142;17.962;2023-05-07T07:12:05;6.70;;;3.20;;
77018;SDS011;66044;53.142;17.962;2023-05-07T07:14:31;6.50;;;3.00;;
77018;SDS011;66044;53.142;17.962;2023-05-07T07:16:58;7.50;;;3.10;;
77018;SDS011;66044;53.142;17.962;2023-05-07T07:19:25;6.10;;;2.90;;
77018;SDS011;66044;53.142;17.962;2023-05-07T07:21:52;7.90;;;3.20;;
77018;SDS011;66044;53.142;17.962;2023-05-07T07:24:18;6.90;;;2.90;;
77018;SDS011;66044;53.142;17.962;2023-05-07T07:26:45;8.10;;;3.00;;
77018;SDS011;66044;53.142;17.962;2023-05-07T07:29:11;6.20;;;2.80;;
77018;SDS011;66044;53.142;17.962;2023-05-07T07:31:38;6.30;;;2.70;;
77018;SDS011;66044;53.142;17.962;2023-05-07T07:34:04;12.10;;;2.80;;
77018;SDS011;66044;53.142;17.962;2023-05-07T07:36:31;6.60;;;2.90;;
77018;SDS011;66044;53.142;17.962;2023-05-07T07:38:57;7.20;;;2.70;;
77018;SDS011;66044;53.142;17.962;2023-05-07T07:41:24;7.60;;;2.90;;
77018;SDS011;66044;53.142;17.962;2023-05-07T07:43:50;7.90;;;3.00;;
77018;SDS011;66044;53.142;17.962;2023-05-07T07:46:17;6.80;;;2.50;;
77018;SDS011;66044;53.142;17.962;2023-05-07T07:48:43;7.40;;;2.90;;
77018;SDS011;66044;53.142;17.962;2023-05-07T07:51:10;7.70;;;2.70;;
77018;SDS011;66044;53.142;17.962;2023-05-07T07:53:36;6.60;;;3.00;;
77018;SDS011;66044;53.142;17.962;2023-05-07T07:56:03;7.40;;;3.00;;
77018;SDS011;66044;53.142;17.962;2023-05-07T07:58:29;6.80;;;2.70;;
77018;SDS011;66044;53.142;17.962;2023-05-07T08:00:56;7.40;;;2.40;;
77018;SDS011;66044;53.142;17.962;2023-05-07T08:03:22;6.40;;;2.80;;
77018;SDS011;66044;53.142;17.962;2023-05-07T08:05:48;7.70;;;2.80;;
77018;SDS011;66044;53.142;17.962;2023-05-07T08:08:17;7.10;;;2.60;;
77018;SDS011;66044;53.142;17.962;2023-05-07T08:10:43;7.90;;;2.20;;
77018;SDS011;66044;53.142;17.962;2023-05-07T08:13:10;8.30;;;2.30;;
77018;SDS011;66044;53.142;17.962;2023-05-07T08:15:37;7.40;;;2.70;;
77018;SDS011;66044;53.142;17.962;2023-05-07T08:18:03;6.40;;;2.30;;
77018;SDS011;66044;53.142;17.962;2023-05-07T08:20:30;6.60;;;2.70;;
77018;SDS011;66044;53.142;17.962;2023-05-07T08:22:56;6.50;;;2.10;;
77018;SDS011;66044;53.142;17.962;2023-05-07T08:25:23;6.60;;;2.50;;
77018;SDS011;66044;53.142;17.962;2023-05-07T08:27:49;7.00;;;2.50;;
77018;SDS011;66044;53.142;17.962;2023-05-07T08:30:16;6.50;;;2.60;;
77018;SDS011;66044;53.142;17.962;2023-05-07T08:32:42;6.80;;;2.50;;
77018;SDS011;66044;53.142;17.962;2023-05-07T08:35:08;6.80;;;2.20;;
77018;SDS011;66044;53.142;17.962;2023-05-07T08:37:35;5.30;;;2.00;;
77018;SDS011;66044;53.142;17.962;2023-05-07T08:40:03;6.70;;;2.50;;
77018;SDS011;66044;53.142;17.962;2023-05-07T08:42:29;6.60;;;1.90;;
77018;SDS011;66044;53.142;17.962;2023-05-07T08:44:57;5.80;;;2.10;;
77018;SDS011;66044;53.142;17.962;2023-05-07T08:47:27;8.60;;;2.40;;
77018;SDS011;66044;53.142;17.962;2023-05-07T08:50:00;5.30;;;1.60;;
77018;SDS011;66044;53.142;17.962;2023-05-07T08:52:27;5.30;;;2.00;;
77018;SDS011;66044;53.142;17.962;2023-05-07T08:54:53;6.00;;;1.90;;
77018;SDS011;66044;53.142;17.962;2023-05-07T08:57:20;6.00;;;2.00;;
77018;SDS011;66044;53.142;17.962;2023-05-07T08:59:47;5.70;;;1.80;;
77018;SDS011;66044;53.142;17.962;2023-05-07T09:02:14;5.80;;;1.60;;
77018;SDS011;66044;53.142;17.962;2023-05-07T09:04:41;5.60;;;1.90;;
77018;SDS011;66044;53.142;17.962;2023-05-07T09:07:14;5.20;;;1.60;;
77018;SDS011;66044;53.142;17.962;2023-05-07T09:09:46;6.30;;;2.10;;
77018;SDS011;66044;53.142;17.962;2023-05-07T09:12:28;5.50;;;1.80;;
77018;SDS011;66044;53.142;17.962;2023-05-07T09:14:54;8.60;;;2.40;;
77018;SDS011;66044;53.142;17.962;2023-05-07T09:17:21;6.00;;;2.20;;
77018;SDS011;66044;53.142;17.962;2023-05-07T09:19:47;5.60;;;1.90;;
77018;SDS011;66044;53.142;17.962;2023-05-07T09:22:14;7.30;;;2.50;;
77018;SDS011;66044;53.142;17.962;2023-05-07T09:24:40;6.70;;;2.10;;
77018;SDS011;66044;53.142;17.962;2023-05-07T09:27:13;6.00;;;2.00;;
77018;SDS011;66044;53.142;17.962;2023-05-07T09:29:39;6.60;;;2.20;;
77018;SDS011;66044;53.142;17.962;2023-05-07T09:32:06;6.10;;;2.50;;
77018;SDS011;66044;53.142;17.962;2023-05-07T09:34:34;5.40;;;1.80;;
77018;SDS011;66044;53.142;17.962;2023-05-07T09:37:01;6.00;;;2.00;;
77018;SDS011;66044;53.142;17.962;2023-05-07T09:39:41;6.30;;;2.40;;
77018;SDS011;66044;53.142;17.962;2023-05-07T09:42:12;6.10;;;2.00;;
77018;SDS011;66044;53.142;17.962;2023-05-07T09:44:41;5.50;;;2.00;;
77018;SDS011;66044;53.142;17.962;2023-05-07T09:47:09;6.90;;;2.20;;
77018;SDS011;66044;53.142;17.962;2023-05-07T09:49:39;8.50;;;2.20;;
77018;SDS011;66044;53.142;17.962;2023-05-07T09:52:06;5.70;;;1.90;;
77018;SDS011;66044;53.142;17.962;2023-05-07T09:54:35;9.60;;;2.60;;
77018;SDS011;66044;53.142;17.962;2023-05-07T09:57:04;6.00;;;2.00;;
77018;SDS011;66044;53.142;17.962;2023-05-07T09:59:32;5.60;;;2.10;;
77018;SDS011;66044;53.142;17.962;2023-05-07T10:02:00;6.60;;;2.10;;
77018;SDS011;66044;53.142;17.962;2023-05-07T10:04:27;6.60;;;2.10;;
77018;SDS011;66044;53.142;17.962;2023-05-07T10:06:54;6.20;;;2.20;;
77018;SDS011;66044;53.142;17.962;2023-05-07T10:09:21;6.20;;;2.30;;
77018;SDS011;66044;53.142;17.962;2023-05-07T10:11:49;6.60;;;2.40;;
77018;SDS011;66044;53.142;17.962;2023-05-07T10:14:16;7.60;;;2.70;;
77018;SDS011;66044;53.142;17.962;2023-05-07T10:16:43;7.40;;;2.20;;
77018;SDS011;66044;53.142;17.962;2023-05-07T10:19:10;6.90;;;2.50;;
77018;SDS011;66044;53.142;17.962;2023-05-07T10:21:36;6.40;;;2.50;;
77018;SDS011;66044;53.142;17.962;2023-05-07T10:24:04;6.50;;;2.30;;
77018;SDS011;66044;53.142;17.962;2023-05-07T10:26:40;5.90;;;2.40;;
77018;SDS011;66044;53.142;17.962;2023-05-07T10:29:18;6.20;;;2.50;;
77018;SDS011;66044;53.142;17.962;2023-05-07T10:34:54;7.80;;;2.20;;
77018;SDS011;66044;53.142;17.962;2023-05-07T10:37:25;7.00;;;2.30;;
77018;SDS011;66044;53.142;17.962;2023-05-07T10:39:52;5.90;;;2.30;;
77018;SDS011;66044;53.142;17.962;2023-05-07T10:42:18;8.10;;;2.70;;
77018;SDS011;66044;53.142;17.962;2023-05-07T10:44:45;6.70;;;1.90;;
77018;SDS011;66044;53.142;17.962;2023-05-07T10:47:12;6.60;;;2.40;;
77018;SDS011;66044;53.142;17.962;2023-05-07T10:54:43;6.40;;;2.60;;
77018;SDS011;66044;53.142;17.962;2023-05-07T11:00:48;6.90;;;2.10;;
77018;SDS011;66044;53.142;17.962;2023-05-07T11:05:31;6.00;;;2.10;;
77018;SDS011;66044;53.142;17.962;2023-05-07T11:08:02;7.60;;;2.40;;
77018;SDS011;66044;53.142;17.962;2023-05-07T11:13:41;6.30;;;2.60;;
77018;SDS011;66044;53.142;17.962;2023-05-07T11:16:22;6.80;;;2.50;;
77018;SDS011;66044;53.142;17.962;2023-05-07T11:18:50;6.40;;;2.60;;
77018;SDS011;66044;53.142;17.962;2023-05-07T11:24:03;6.50;;;2.70;;
77018;SDS011;66044;53.142;17.962;2023-05-07T11:26:41;6.60;;;2.50;;
77018;SDS011;66044;53.142;17.962;2023-05-07T11:29:11;6.10;;;2.30;;
77018;SDS011;66044;53.142;17.962;2023-05-07T11:31:39;7.40;;;2.20;;
77018;SDS011;66044;53.142;17.962;2023-05-07T11:34:06;6.10;;;2.40;;
77018;SDS011;66044;53.142;17.962;2023-05-07T11:36:32;8.90;;;3.00;;
77018;SDS011;66044;53.142;17.962;2023-05-07T11:38:59;7.10;;;3.20;;
77018;SDS011;66044;53.142;17.962;2023-05-07T11:41:38;6.80;;;2.10;;
77018;SDS011;66044;53.142;17.962;2023-05-07T11:44:04;6.40;;;2.40;;
77018;SDS011;66044;53.142;17.962;2023-05-07T11:46:31;6.80;;;2.80;;
77018;SDS011;66044;53.142;17.962;2023-05-07T11:48:58;7.10;;;2.80;;
77018;SDS011;66044;53.142;17.962;2023-05-07T11:51:26;7.70;;;3.50;;
77018;SDS011;66044;53.142;17.962;2023-05-07T11:53:53;7.80;;;2.90;;
77018;SDS011;66044;53.142;17.962;2023-05-07T11:56:22;6.70;;;2.50;;
77018;SDS011;66044;53.142;17.962;2023-05-07T11:58:49;7.00;;;1.90;;
77018;SDS011;66044;53.142;17.962;2023-05-07T12:01:17;7.30;;;2.10;;
77018;SDS011;66044;53.142;17.962;2023-05-07T12:03:44;6.10;;;2.30;;
77018;SDS011;66044;53.142;17.962;2023-05-07T12:06:12;5.90;;;2.00;;
77018;SDS011;66044;53.142;17.962;2023-05-07T12:08:40;6.00;;;2.00;;
77018;SDS011;66044;53.142;17.962;2023-05-07T12:11:09;6.20;;;2.20;;
77018;SDS011;66044;53.142;17.962;2023-05-07T12:13:38;6.60;;;2.60;;
77018;SDS011;66044;53.142;17.962;2023-05-07T12:16:05;6.00;;;2.10;;
77018;SDS011;66044;53.142;17.962;2023-05-07T12:18:33;8.20;;;2.00;;
77018;SDS011;66044;53.142;17.962;2023-05-07T12:21:01;6.20;;;2.10;;
77018;SDS011;66044;53.142;17.962;2023-05-07T12:23:28;6.30;;;2.60;;
77018;SDS011;66044;53.142;17.962;2023-05-07T12:25:55;9.20;;;2.50;;
77018;SDS011;66044;53.142;17.962;2023-05-07T12:28:22;6.20;;;2.00;;
77018;SDS011;66044;53.142;17.962;2023-05-07T12:30:49;7.70;;;2.60;;
77018;SDS011;66044;53.142;17.962;2023-05-07T12:33:17;7.90;;;2.70;;
77018;SDS011;66044;53.142;17.962;2023-05-07T12:35:45;6.70;;;2.50;;
77018;SDS011;66044;53.142;17.962;2023-05-07T12:38:14;5.90;;;2.30;;
77018;SDS011;66044;53.142;17.962;2023-05-07T12:40:44;6.30;;;2.30;;
77018;SDS011;66044;53.142;17.962;2023-05-07T12:43:20;6.00;;;2.60;;
77018;SDS011;66044;53.142;17.962;2023-05-07T12:45:48;7.30;;;2.20;;
77018;SDS011;66044;53.142;17.962;2023-05-07T12:48:17;5.70;;;1.90;;
77018;SDS011;66044;53.142;17.962;2023-05-07T12:50:45;6.00;;;2.00;;
77018;SDS011;66044;53.142;17.962;2023-05-07T12:53:14;6.60;;;2.20;;
77018;SDS011;66044;53.142;17.962;2023-05-07T12:55:44;7.60;;;1.90;;
77018;SDS011;66044;53.142;17.962;2023-05-07T12:58:17;6.20;;;2.40;;
77018;SDS011;66044;53.142;17.962;2023-05-07T13:00:47;5.70;;;1.80;;
77018;SDS011;66044;53.142;17.962;2023-05-07T13:03:21;5.00;;;1.80;;
77018;SDS011;66044;53.142;17.962;2023-05-07T13:05:57;6.10;;;2.10;;
77018;SDS011;66044;53.142;17.962;2023-05-07T13:08:29;6.40;;;2.00;;
77018;SDS011;66044;53.142;17.962;2023-05-07T13:11:07;7.30;;;2.10;;
77018;SDS011;66044;53.142;17.962;2023-05-07T13:13:34;7.20;;;1.80;;
77018;SDS011;66044;53.142;17.962;2023-05-07T13:16:02;5.90;;;2.30;;
77018;SDS011;66044;53.142;17.962;2023-05-07T13:18:29;8.50;;;2.40;;
77018;SDS011;66044;53.142;17.962;2023-05-07T13:20:57;6.20;;;2.00;;
77018;SDS011;66044;53.142;17.962;2023-05-07T13:23:23;6.70;;;2.00;;
77018;SDS011;66044;53.142;17.962;2023-05-07T13:25:51;6.20;;;2.20;;
77018;SDS011;66044;53.142;17.962;2023-05-07T13:28:19;6.60;;;2.20;;
77018;SDS011;66044;53.142;17.962;2023-05-07T13:30:46;6.10;;;2.20;;
77018;SDS011;66044;53.142;17.962;2023-05-07T13:33:13;6.60;;;2.20;;
77018;SDS011;66044;53.142;17.962;2023-05-07T13:35:40;5.30;;;1.90;;
77018;SDS011;66044;53.142;17.962;2023-05-07T13:38:06;6.00;;;2.00;;
77018;SDS011;66044;53.142;17.962;2023-05-07T13:40:32;5.90;;;2.30;;
77018;SDS011;66044;53.142;17.962;2023-05-07T13:42:59;5.60;;;1.80;;
77018;SDS011;66044;53.142;17.962;2023-05-07T13:45:28;6.00;;;2.20;;
77018;SDS011;66044;53.142;17.962;2023-05-07T13:47:57;8.10;;;2.60;;
77018;SDS011;66044;53.142;17.962;2023-05-07T13:50:24;8.80;;;3.30;;
77018;SDS011;66044;53.142;17.962;2023-05-07T13:52:53;6.00;;;1.90;;
77018;SDS011;66044;53.142;17.962;2023-05-07T13:55:19;5.50;;;2.00;;
77018;SDS011;66044;53.142;17.962;2023-05-07T13:57:47;6.90;;;1.90;;
77018;SDS011;66044;53.142;17.962;2023-05-07T14:00:20;4.80;;;1.60;;
77018;SDS011;66044;53.142;17.962;2023-05-07T14:02:46;6.50;;;1.50;;
77018;SDS011;66044;53.142;17.962;2023-05-07T14:05:13;5.80;;;1.80;;
77018;SDS011;66044;53.142;17.962;2023-05-07T14:07:39;5.20;;;1.90;;
77018;SDS011;66044;53.142;17.962;2023-05-07T14:10:06;5.70;;;1.90;;
77018;SDS011;66044;53.142;17.962;2023-05-07T14:12:32;5.30;;;1.70;;
77018;SDS011;66044;53.142;17.962;2023-05-07T14:14:59;6.70;;;2.10;;
77018;SDS011;66044;53.142;17.962;2023-05-07T14:17:25;6.20;;;2.00;;
77018;SDS011;66044;53.142;17.962;2023-05-07T14:19:53;5.60;;;1.60;;
77018;SDS011;66044;53.142;17.962;2023-05-07T14:22:21;5.30;;;1.70;;
77018;SDS011;66044;53.142;17.962;2023-05-07T14:24:48;5.50;;;1.60;;
77018;SDS011;66044;53.142;17.962;2023-05-07T14:27:16;6.10;;;1.70;;
77018;SDS011;66044;53.142;17.962;2023-05-07T14:29:42;5.70;;;1.80;;
77018;SDS011;66044;53.142;17.962;2023-05-07T14:32:09;5.00;;;1.80;;
77018;SDS011;66044;53.142;17.962;2023-05-07T14:34:35;6.80;;;1.90;;
77018;SDS011;66044;53.142;17.962;2023-05-07T14:37:02;5.90;;;1.60;;
77018;SDS011;66044;53.142;17.962;2023-05-07T14:39:29;5.40;;;1.50;;
77018;SDS011;66044;53.142;17.962;2023-05-07T14:41:56;8.20;;;1.90;;
77018;SDS011;66044;53.142;17.962;2023-05-07T14:44:23;5.20;;;1.90;;
77018;SDS011;66044;53.142;17.962;2023-05-07T14:46:49;6.60;;;1.80;;
77018;SDS011;66044;53.142;17.962;2023-05-07T14:49:16;5.50;;;1.80;;